sensor_id;sensor_type;location;lat;lon;timestamp;P1;durP1;ratioP1;P2;durP2;ratioP2
49101;SDS011;34913;47.520;19.186;2022-12-10T00:01:54;11.93;;;8.43;;
49101;SDS011;34913;47.520;19.186;2022-12-10T00:04:19;11.35;;;8.38;;
49101;SDS011;34913;47.520;19.186;2022-12-10T00:06:46;11.18;;;7.90;;
49101;SDS011;34913;47.520;19.186;2022-12-10T00:09:13;10.43;;;7.80;;
49101;SDS011;34913;47.520;19.186;2022-12-10T00:11:41;11.18;;;7.97;;
49101;SDS011;34913;47.520;19.186;2022-12-10T00:14:07;9.98;;;7.85;;
49101;SDS011;34913;47.520;19.186;2022-12-10T00:16:32;11.20;;;8.13;;
49101;SDS011;34913;47.520;19.186;2022-12-10T00:18:58;11.35;;;8.18;;
49101;SDS011;34913;47.520;19.186;2022-12-10T00:21:27;11.23;;;8.07;;
49101;SDS011;34913;47.520;19.186;2022-12-10T00:23:54;12.60;;;7.97;;
49101;SDS011;34913;47.520;19.186;2022-12-10T00:26:21;10.50;;;7.80;;
49101;SDS011;34913;47.520;19.186;2022-12-10T00:28:49;10.07;;;7.88;;
49101;SDS011;34913;47.520;19.186;2022-12-10T00:31:19;11.70;;;8.32;;
49101;SDS011;34913;47.520;19.186;2022-12-10T00:33:48;17.45;;;12.00;;
49101;SDS011;34913;47.520;19.186;2022-12-10T00:38:43;18.70;;;11.85;;
49101;SDS011;34913;47.520;19.186;2022-12-10T00:41:10;18.13;;;12.35;;
49101;SDS011;34913;47.520;19.186;2022-12-10T00:43:36;16.67;;;11.73;;
49101;SDS011;34913;47.520;19.186;2022-12-10T00:46:02;17.02;;;11.20;;
49101;SDS011;34913;47.520;19.186;2022-12-10T00:48:28;15.73;;;10.82;;
49101;SDS011;34913;47.520;19.186;2022-12-10T00:50:57;14.80;;;10.70;;
49101;SDS011;34913;47.520;19.186;2022-12-10T00:53:31;14.13;;;9.57;;
49101;SDS011;34913;47.520;19.186;2022-12-10T00:55:58;13.50;;;9.30;;
49101;SDS011;34913;47.520;19.186;2022-12-10T00:58:26;14.02;;;8.88;;
49101;SDS011;34913;47.520;19.186;2022-12-10T01:00:53;12.45;;;8.60;;
49101;SDS011;34913;47.520;19.186;2022-12-10T01:03:19;11.65;;;8.25;;
49101;SDS011;34913;47.520;19.186;2022-12-10T01:05:44;12.38;;;8.73;;
49101;SDS011;34913;47.520;19.186;2022-12-10T01:08:10;11.18;;;8.38;;
49101;SDS011;34913;47.520;19.186;2022-12-10T01:10:35;12.75;;;8.82;;
49101;SDS011;34913;47.520;19.186;2022-12-10T01:13:01;11.10;;;9.02;;
49101;SDS011;34913;47.520;19.186;2022-12-10T01:15:26;16.58;;;10.32;;
49101;SDS011;34913;47.520;19.186;2022-12-10T01:17:52;23.15;;;13.20;;
49101;SDS011;34913;47.520;19.186;2022-12-10T01:20:17;21.52;;;12.77;;
49101;SDS011;34913;47.520;19.186;2022-12-10T01:22:42;20.50;;;12.93;;
49101;SDS011;34913;47.520;19.186;2022-12-10T01:25:08;19.45;;;13.13;;
49101;SDS011;34913;47.520;19.186;2022-12-10T01:27:33;19.73;;;12.23;;
49101;SDS011;34913;47.520;19.186;2022-12-10T01:29:59;20.85;;;12.38;;
49101;SDS011;34913;47.520;19.186;2022-12-10T01:32:24;18.65;;;12.45;;
49101;SDS011;34913;47.520;19.186;2022-12-10T01:34:50;19.08;;;12.60;;
49101;SDS011;34913;47.520;19.186;2022-12-10T01:37:15;19.85;;;12.88;;
49101;SDS011;34913;47.520;19.186;2022-12-10T01:39:41;21.50;;;12.65;;
49101;SDS011;34913;47.520;19.186;2022-12-10T01:42:08;22.67;;;13.30;;
49101;SDS011;34913;47.520;19.186;2022-12-10T01:47:08;19.40;;;12.27;;
49101;SDS011;34913;47.520;19.186;2022-12-10T01:49:35;20.23;;;12.52;;
49101;SDS011;34913;47.520;19.186;2022-12-10T01:52:03;18.13;;;11.35;;
49101;SDS011;34913;47.520;19.186;2022-12-10T01:54:32;17.67;;;11.88;;
49101;SDS011;34913;47.520;19.186;2022-12-10T01:57:05;17.08;;;11.32;;
49101;SDS011;34913;47.520;19.186;2022-12-10T01:59:33;17.50;;;11.93;;
49101;SDS011;34913;47.520;19.186;2022-12-10T02:02:03;18.42;;;10.73;;
49101;SDS011;34913;47.520;19.186;2022-12-10T02:04:32;13.93;;;9.95;;
49101;SDS011;34913;47.520;19.186;2022-12-10T02:07:06;17.00;;;10.82;;
49101;SDS011;34913;47.520;19.186;2022-12-10T02:09:41;16.40;;;10.57;;
49101;SDS011;34913;47.520;19.186;2022-12-10T02:14:57;22.63;;;10.87;;
49101;SDS011;34913;47.520;19.186;2022-12-10T02:17:34;16.02;;;10.00;;
49101;SDS011;34913;47.520;19.186;2022-12-10T02:20:13;15.35;;;10.55;;
49101;SDS011;34913;47.520;19.186;2022-12-10T02:22:50;14.25;;;9.85;;
49101;SDS011;34913;47.520;19.186;2022-12-10T02:25:21;16.17;;;10.75;;
49101;SDS011;34913;47.520;19.186;2022-12-10T02:28:05;16.88;;;10.75;;
49101;SDS011;34913;47.520;19.186;2022-12-10T02:30:38;19.35;;;12.02;;
49101;SDS011;34913;47.520;19.186;2022-12-10T02:33:07;17.13;;;11.55;;
49101;SDS011;34913;47.520;19.186;2022-12-10T02:35:34;16.25;;;11.15;;
49101;SDS011;34913;47.520;19.186;2022-12-10T02:38:06;17.88;;;11.02;;
49101;SDS011;34913;47.520;19.186;2022-12-10T02:40:36;21.45;;;11.50;;
49101;SDS011;34913;47.520;19.186;2022-12-10T02:43:06;16.52;;;10.95;;
49101;SDS011;34913;47.520;19.186;2022-12-10T02:45:33;16.67;;;11.30;;
49101;SDS011;34913;47.520;19.186;2022-12-10T02:48:00;20.20;;;12.20;;
49101;SDS011;34913;47.520;19.186;2022-12-10T02:50:28;19.25;;;11.70;;
49101;SDS011;34913;47.520;19.186;2022-12-10T02:52:53;17.92;;;10.50;;
49101;SDS011;34913;47.520;19.186;2022-12-10T02:55:19;12.63;;;9.52;;
49101;SDS011;34913;47.520;19.186;2022-12-10T03:00:31;11.38;;;8.45;;
49101;SDS011;34913;47.520;19.186;2022-12-10T03:03:11;13.48;;;9.10;;
49101;SDS011;34913;47.520;19.186;2022-12-10T03:06:22;12.13;;;8.60;;
49101;SDS011;34913;47.520;19.186;2022-12-10T03:08:48;12.18;;;8.55;;
49101;SDS011;34913;47.520;19.186;2022-12-10T03:11:23;12.10;;;8.07;;
49101;SDS011;34913;47.520;19.186;2022-12-10T03:16:23;11.88;;;8.50;;
49101;SDS011;34913;47.520;19.186;2022-12-10T03:18:52;10.40;;;7.68;;
49101;SDS011;34913;47.520;19.186;2022-12-10T03:21:22;11.50;;;7.93;;
49101;SDS011;34913;47.520;19.186;2022-12-10T03:23:50;10.05;;;7.40;;
49101;SDS011;34913;47.520;19.186;2022-12-10T03:26:16;10.27;;;6.90;;
49101;SDS011;34913;47.520;19.186;2022-12-10T03:28:47;9.63;;;7.05;;
49101;SDS011;34913;47.520;19.186;2022-12-10T03:31:16;9.40;;;6.80;;
49101;SDS011;34913;47.520;19.186;2022-12-10T03:33:43;9.32;;;6.90;;
49101;SDS011;34913;47.520;19.186;2022-12-10T03:36:10;10.75;;;7.15;;
49101;SDS011;34913;47.520;19.186;2022-12-10T03:38:37;9.75;;;7.28;;
49101;SDS011;34913;47.520;19.186;2022-12-10T03:41:03;10.73;;;6.88;;
49101;SDS011;34913;47.520;19.186;2022-12-10T03:43:29;11.55;;;7.55;;
49101;SDS011;34913;47.520;19.186;2022-12-10T03:45:54;11.48;;;7.80;;
49101;SDS011;34913;47.520;19.186;2022-12-10T03:48:20;11.65;;;7.85;;
49101;SDS011;34913;47.520;19.186;2022-12-10T03:50:45;11.60;;;7.95;;
49101;SDS011;34913;47.520;19.186;2022-12-10T03:53:10;12.75;;;8.20;;
49101;SDS011;34913;47.520;19.186;2022-12-10T03:55:36;15.93;;;8.40;;
49101;SDS011;34913;47.520;19.186;2022-12-10T03:58:02;12.38;;;8.00;;
49101;SDS011;34913;47.520;19.186;2022-12-10T04:00:28;12.15;;;7.65;;
49101;SDS011;34913;47.520;19.186;2022-12-10T04:02:53;12.60;;;8.00;;
49101;SDS011;34913;47.520;19.186;2022-12-10T04:05:19;14.68;;;8.10;;
49101;SDS011;34913;47.520;19.186;2022-12-10T04:07:44;14.40;;;8.32;;
49101;SDS011;34913;47.520;19.186;2022-12-10T04:10:09;13.80;;;8.35;;
49101;SDS011;34913;47.520;19.186;2022-12-10T04:12:35;16.38;;;9.15;;
49101;SDS011;34913;47.520;19.186;2022-12-10T04:15:00;15.48;;;8.43;;
49101;SDS011;34913;47.520;19.186;2022-12-10T04:17:44;16.98;;;8.65;;
49101;SDS011;34913;47.520;19.186;2022-12-10T04:20:10;18.27;;;9.02;;
49101;SDS011;34913;47.520;19.186;2022-12-10T04:22:55;16.58;;;8.20;;
49101;SDS011;34913;47.520;19.186;2022-12-10T04:25:39;16.35;;;8.32;;
49101;SDS011;34913;47.520;19.186;2022-12-10T04:28:23;14.27;;;7.78;;
49101;SDS011;34913;47.520;19.186;2022-12-10T04:30:48;15.82;;;8.75;;
49101;SDS011;34913;47.520;19.186;2022-12-10T04:33:14;16.83;;;8.63;;
49101;SDS011;34913;47.520;19.186;2022-12-10T04:35:39;17.85;;;8.27;;
49101;SDS011;34913;47.520;19.186;2022-12-10T04:38:05;14.98;;;7.88;;
49101;SDS011;34913;47.520;19.186;2022-12-10T04:40:30;17.10;;;8.52;;
49101;SDS011;34913;47.520;19.186;2022-12-10T04:42:55;14.50;;;8.20;;
49101;SDS011;34913;47.520;19.186;2022-12-10T04:45:21;17.50;;;8.18;;
49101;SDS011;34913;47.520;19.186;2022-12-10T04:47:46;14.82;;;8.23;;
49101;SDS011;34913;47.520;19.186;2022-12-10T04:50:11;16.88;;;8.73;;
49101;SDS011;34913;47.520;19.186;2022-12-10T04:52:37;16.90;;;8.48;;
49101;SDS011;34913;47.520;19.186;2022-12-10T04:55:02;15.85;;;8.40;;
49101;SDS011;34913;47.520;19.186;2022-12-10T04:57:28;14.65;;;8.38;;
49101;SDS011;34913;47.520;19.186;2022-12-10T04:59:53;17.38;;;9.38;;
49101;SDS011;34913;47.520;19.186;2022-12-10T05:02:19;17.05;;;8.63;;
49101;SDS011;34913;47.520;19.186;2022-12-10T05:04:44;15.63;;;8.88;;
49101;SDS011;34913;47.520;19.186;2022-12-10T05:07:09;15.38;;;8.95;;
49101;SDS011;34913;47.520;19.186;2022-12-10T05:09:35;14.52;;;8.40;;
49101;SDS011;34913;47.520;19.186;2022-12-10T05:12:00;16.33;;;9.05;;
49101;SDS011;34913;47.520;19.186;2022-12-10T05:14:26;16.58;;;9.10;;
49101;SDS011;34913;47.520;19.186;2022-12-10T05:16:51;16.70;;;10.10;;
49101;SDS011;34913;47.520;19.186;2022-12-10T05:19:17;17.13;;;10.30;;
49101;SDS011;34913;47.520;19.186;2022-12-10T05:21:44;19.88;;;10.38;;
49101;SDS011;34913;47.520;19.186;2022-12-10T05:24:29;19.13;;;11.10;;
49101;SDS011;34913;47.520;19.186;2022-12-10T05:26:54;21.70;;;12.05;;
49101;SDS011;34913;47.520;19.186;2022-12-10T05:29:21;18.40;;;11.27;;
49101;SDS011;34913;47.520;19.186;2022-12-10T05:31:46;22.50;;;12.75;;
49101;SDS011;34913;47.520;19.186;2022-12-10T05:34:12;20.48;;;12.40;;
49101;SDS011;34913;47.520;19.186;2022-12-10T05:36:38;21.60;;;12.27;;
49101;SDS011;34913;47.520;19.186;2022-12-10T05:39:03;25.08;;;12.98;;
49101;SDS011;34913;47.520;19.186;2022-12-10T05:41:30;21.35;;;12.73;;
49101;SDS011;34913;47.520;19.186;2022-12-10T05:43:58;21.83;;;13.05;;
49101;SDS011;34913;47.520;19.186;2022-12-10T05:46:25;21.98;;;12.95;;
49101;SDS011;34913;47.520;19.186;2022-12-10T05:48:52;22.15;;;13.43;;
49101;SDS011;34913;47.520;19.186;2022-12-10T05:51:20;25.20;;;14.25;;
49101;SDS011;34913;47.520;19.186;2022-12-10T05:53:47;23.17;;;13.13;;
49101;SDS011;34913;47.520;19.186;2022-12-10T05:56:14;20.65;;;13.07;;
49101;SDS011;34913;47.520;19.186;2022-12-10T05:58:43;21.70;;;13.27;;
49101;SDS011;34913;47.520;19.186;2022-12-10T06:01:10;23.25;;;13.18;;
49101;SDS011;34913;47.520;19.186;2022-12-10T06:03:39;23.85;;;12.95;;
49101;SDS011;34913;47.520;19.186;2022-12-10T06:06:05;21.77;;;13.32;;
49101;SDS011;34913;47.520;19.186;2022-12-10T06:08:31;20.85;;;12.93;;
49101;SDS011;34913;47.520;19.186;2022-12-10T06:11:00;21.27;;;12.63;;
49101;SDS011;34913;47.520;19.186;2022-12-10T06:13:29;19.95;;;12.63;;
49101;SDS011;34913;47.520;19.186;2022-12-10T06:15:55;20.42;;;12.88;;
49101;SDS011;34913;47.520;19.186;2022-12-10T06:18:20;22.88;;;13.52;;
49101;SDS011;34913;47.520;19.186;2022-12-10T06:20:46;21.05;;;13.02;;
49101;SDS011;34913;47.520;19.186;2022-12-10T06:23:12;20.17;;;13.10;;
49101;SDS011;34913;47.520;19.186;2022-12-10T06:25:38;21.73;;;13.40;;
49101;SDS011;34913;47.520;19.186;2022-12-10T06:28:05;22.50;;;13.73;;
49101;SDS011;34913;47.520;19.186;2022-12-10T06:30:31;23.77;;;13.80;;
49101;SDS011;34913;47.520;19.186;2022-12-10T06:32:57;21.80;;;12.57;;
49101;SDS011;34913;47.520;19.186;2022-12-10T06:35:22;22.80;;;13.65;;
49101;SDS011;34913;47.520;19.186;2022-12-10T06:37:48;21.98;;;13.55;;
49101;SDS011;34913;47.520;19.186;2022-12-10T06:40:14;23.55;;;14.68;;
49101;SDS011;34913;47.520;19.186;2022-12-10T06:42:39;21.27;;;13.65;;
49101;SDS011;34913;47.520;19.186;2022-12-10T06:45:05;22.02;;;13.25;;
49101;SDS011;34913;47.520;19.186;2022-12-10T06:47:31;20.70;;;13.20;;
49101;SDS011;34913;47.520;19.186;2022-12-10T06:49:56;20.73;;;13.40;;
49101;SDS011;34913;47.520;19.186;2022-12-10T06:52:21;22.27;;;13.98;;
49101;SDS011;34913;47.520;19.186;2022-12-10T06:54:47;23.73;;;14.55;;
49101;SDS011;34913;47.520;19.186;2022-12-10T06:57:12;22.13;;;13.50;;
49101;SDS011;34913;47.520;19.186;2022-12-10T06:59:38;20.33;;;13.70;;
49101;SDS011;34913;47.520;19.186;2022-12-10T07:02:03;21.02;;;14.00;;
49101;SDS011;34913;47.520;19.186;2022-12-10T07:04:28;22.15;;;13.68;;
49101;SDS011;34913;47.520;19.186;2022-12-10T07:06:54;25.80;;;14.82;;
49101;SDS011;34913;47.520;19.186;2022-12-10T07:09:19;21.45;;;13.65;;
49101;SDS011;34913;47.520;19.186;2022-12-10T07:11:45;21.33;;;14.00;;
49101;SDS011;34913;47.520;19.186;2022-12-10T07:14:14;20.88;;;13.63;;
49101;SDS011;34913;47.520;19.186;2022-12-10T07:16:41;21.08;;;13.43;;
49101;SDS011;34913;47.520;19.186;2022-12-10T07:19:08;22.60;;;14.27;;
49101;SDS011;34913;47.520;19.186;2022-12-10T07:21:35;21.08;;;13.80;;
49101;SDS011;34913;47.520;19.186;2022-12-10T07:24:02;22.00;;;13.45;;
49101;SDS011;34913;47.520;19.186;2022-12-10T07:26:31;21.50;;;13.95;;
49101;SDS011;34913;47.520;19.186;2022-12-10T07:28:59;23.42;;;14.15;;
49101;SDS011;34913;47.520;19.186;2022-12-10T07:31:26;22.98;;;14.65;;
49101;SDS011;34913;47.520;19.186;2022-12-10T07:33:52;23.88;;;15.40;;
49101;SDS011;34913;47.520;19.186;2022-12-10T07:36:19;24.33;;;16.20;;
49101;SDS011;34913;47.520;19.186;2022-12-10T07:38:47;24.98;;;16.35;;
49101;SDS011;34913;47.520;19.186;2022-12-10T07:41:13;27.38;;;17.67;;
49101;SDS011;34913;47.520;19.186;2022-12-10T07:43:40;28.40;;;18.23;;
49101;SDS011;34913;47.520;19.186;2022-12-10T07:46:08;27.92;;;17.95;;
49101;SDS011;34913;47.520;19.186;2022-12-10T07:48:41;26.00;;;16.42;;
49101;SDS011;34913;47.520;19.186;2022-12-10T07:51:08;24.80;;;16.70;;
49101;SDS011;34913;47.520;19.186;2022-12-10T07:53:34;28.33;;;18.27;;
49101;SDS011;34913;47.520;19.186;2022-12-10T07:56:00;25.27;;;16.77;;
49101;SDS011;34913;47.520;19.186;2022-12-10T07:58:26;24.27;;;16.67;;
49101;SDS011;34913;47.520;19.186;2022-12-10T08:00:51;26.23;;;16.85;;
49101;SDS011;34913;47.520;19.186;2022-12-10T08:03:17;25.05;;;16.75;;
49101;SDS011;34913;47.520;19.186;2022-12-10T08:05:42;27.60;;;17.08;;
49101;SDS011;34913;47.520;19.186;2022-12-10T08:08:08;27.35;;;16.75;;
49101;SDS011;34913;47.520;19.186;2022-12-10T08:10:36;26.42;;;17.55;;
49101;SDS011;34913;47.520;19.186;2022-12-10T08:13:03;25.70;;;16.88;;
49101;SDS011;34913;47.520;19.186;2022-12-10T08:15:29;26.88;;;17.10;;
49101;SDS011;34913;47.520;19.186;2022-12-10T08:17:55;25.80;;;16.38;;
49101;SDS011;34913;47.520;19.186;2022-12-10T08:20:21;28.73;;;17.17;;
49101;SDS011;34913;47.520;19.186;2022-12-10T08:22:47;23.55;;;16.95;;
49101;SDS011;34913;47.520;19.186;2022-12-10T08:25:13;25.48;;;16.83;;
49101;SDS011;34913;47.520;19.186;2022-12-10T08:27:38;27.45;;;16.70;;
49101;SDS011;34913;47.520;19.186;2022-12-10T08:30:04;25.23;;;16.67;;
49101;SDS011;34913;47.520;19.186;2022-12-10T08:32:30;24.02;;;16.17;;
49101;SDS011;34913;47.520;19.186;2022-12-10T08:34:55;25.77;;;16.92;;
49101;SDS011;34913;47.520;19.186;2022-12-10T08:37:21;23.83;;;16.10;;
49101;SDS011;34913;47.520;19.186;2022-12-10T08:39:46;26.27;;;16.85;;
49101;SDS011;34913;47.520;19.186;2022-12-10T08:42:12;25.58;;;16.67;;
49101;SDS011;34913;47.520;19.186;2022-12-10T08:44:37;22.60;;;15.85;;
49101;SDS011;34913;47.520;19.186;2022-12-10T08:47:03;24.13;;;15.90;;
49101;SDS011;34913;47.520;19.186;2022-12-10T08:49:29;23.73;;;15.90;;
49101;SDS011;34913;47.520;19.186;2022-12-10T08:51:55;24.27;;;15.75;;
49101;SDS011;34913;47.520;19.186;2022-12-10T08:54:20;22.75;;;15.07;;
49101;SDS011;34913;47.520;19.186;2022-12-10T08:56:46;24.60;;;15.27;;
49101;SDS011;34913;47.520;19.186;2022-12-10T08:59:11;21.98;;;14.13;;
49101;SDS011;34913;47.520;19.186;2022-12-10T09:01:36;22.65;;;14.70;;
49101;SDS011;34913;47.520;19.186;2022-12-10T09:04:02;22.45;;;14.98;;
49101;SDS011;34913;47.520;19.186;2022-12-10T09:06:28;20.30;;;14.05;;
49101;SDS011;34913;47.520;19.186;2022-12-10T09:08:53;21.23;;;13.93;;
49101;SDS011;34913;47.520;19.186;2022-12-10T09:11:23;21.88;;;14.45;;
49101;SDS011;34913;47.520;19.186;2022-12-10T09:16:17;23.98;;;14.70;;
49101;SDS011;34913;47.520;19.186;2022-12-10T09:18:42;26.70;;;15.20;;
49101;SDS011;34913;47.520;19.186;2022-12-10T09:21:09;24.67;;;15.18;;
49101;SDS011;34913;47.520;19.186;2022-12-10T09:23:40;22.27;;;14.68;;
49101;SDS011;34913;47.520;19.186;2022-12-10T09:26:10;21.63;;;14.30;;
49101;SDS011;34913;47.520;19.186;2022-12-10T09:28:37;21.27;;;14.70;;
49101;SDS011;34913;47.520;19.186;2022-12-10T09:31:03;20.42;;;14.05;;
49101;SDS011;34913;47.520;19.186;2022-12-10T09:33:30;22.60;;;14.25;;
49101;SDS011;34913;47.520;19.186;2022-12-10T09:35:56;21.23;;;14.35;;
49101;SDS011;34913;47.520;19.186;2022-12-10T09:38:22;27.17;;;17.35;;
49101;SDS011;34913;47.520;19.186;2022-12-10T09:41:02;28.17;;;18.45;;
49101;SDS011;34913;47.520;19.186;2022-12-10T09:43:50;27.70;;;17.73;;
49101;SDS011;34913;47.520;19.186;2022-12-10T09:46:25;23.67;;;16.13;;
49101;SDS011;34913;47.520;19.186;2022-12-10T09:51:38;25.43;;;16.77;;
49101;SDS011;34913;47.520;19.186;2022-12-10T09:54:04;26.75;;;17.40;;
49101;SDS011;34913;47.520;19.186;2022-12-10T09:56:44;24.35;;;15.68;;
49101;SDS011;34913;47.520;19.186;2022-12-10T09:59:18;23.35;;;15.27;;
49101;SDS011;34913;47.520;19.186;2022-12-10T10:01:49;24.25;;;15.23;;
49101;SDS011;34913;47.520;19.186;2022-12-10T10:04:27;22.20;;;14.98;;
49101;SDS011;34913;47.520;19.186;2022-12-10T10:06:53;26.58;;;16.35;;
49101;SDS011;34913;47.520;19.186;2022-12-10T10:09:18;24.77;;;16.05;;
49101;SDS011;34913;47.520;19.186;2022-12-10T10:11:44;25.35;;;16.02;;
49101;SDS011;34913;47.520;19.186;2022-12-10T10:14:20;26.27;;;17.17;;
49101;SDS011;34913;47.520;19.186;2022-12-10T10:16:51;25.88;;;16.38;;
49101;SDS011;34913;47.520;19.186;2022-12-10T10:19:27;26.08;;;16.88;;
49101;SDS011;34913;47.520;19.186;2022-12-10T10:21:55;29.58;;;16.13;;
49101;SDS011;34913;47.520;19.186;2022-12-10T10:24:22;26.48;;;16.75;;
49101;SDS011;34913;47.520;19.186;2022-12-10T10:27:01;29.60;;;17.58;;
49101;SDS011;34913;47.520;19.186;2022-12-10T10:30:02;26.27;;;16.63;;
49101;SDS011;34913;47.520;19.186;2022-12-10T10:32:44;28.52;;;17.10;;
49101;SDS011;34913;47.520;19.186;2022-12-10T10:35:48;24.45;;;15.68;;
49101;SDS011;34913;47.520;19.186;2022-12-10T10:40:53;24.17;;;15.23;;
49101;SDS011;34913;47.520;19.186;2022-12-10T10:43:40;26.20;;;16.60;;
49101;SDS011;34913;47.520;19.186;2022-12-10T10:46:14;25.25;;;15.85;;
49101;SDS011;34913;47.520;19.186;2022-12-10T10:48:41;25.67;;;15.15;;
49101;SDS011;34913;47.520;19.186;2022-12-10T10:53:41;21.00;;;13.65;;
49101;SDS011;34913;47.520;19.186;2022-12-10T10:59:27;20.30;;;13.48;;
49101;SDS011;34913;47.520;19.186;2022-12-10T11:04:12;23.50;;;14.80;;
49101;SDS011;34913;47.520;19.186;2022-12-10T11:06:39;20.63;;;13.88;;
49101;SDS011;34913;47.520;19.186;2022-12-10T11:09:06;19.90;;;13.40;;
49101;SDS011;34913;47.520;19.186;2022-12-10T11:11:33;20.70;;;13.40;;
49101;SDS011;34913;47.520;19.186;2022-12-10T11:14:14;22.15;;;14.80;;
49101;SDS011;34913;47.520;19.186;2022-12-10T11:16:47;23.90;;;15.00;;
49101;SDS011;34913;47.520;19.186;2022-12-10T11:19:20;24.55;;;14.77;;
49101;SDS011;34913;47.520;19.186;2022-12-10T11:21:48;22.90;;;14.68;;
49101;SDS011;34913;47.520;19.186;2022-12-10T11:24:15;26.05;;;15.50;;
49101;SDS011;34913;47.520;19.186;2022-12-10T11:26:59;24.88;;;15.65;;
49101;SDS011;34913;47.520;19.186;2022-12-10T11:30:40;26.65;;;16.23;;
49101;SDS011;34913;47.520;19.186;2022-12-10T12:00:23;33.10;;;20.13;;
49101;SDS011;34913;47.520;19.186;2022-12-10T12:05:38;33.85;;;21.13;;
49101;SDS011;34913;47.520;19.186;2022-12-10T12:08:19;39.00;;;21.90;;
49101;SDS011;34913;47.520;19.186;2022-12-10T12:11:42;38.45;;;22.20;;
49101;SDS011;34913;47.520;19.186;2022-12-10T12:16:18;36.10;;;21.25;;
49101;SDS011;34913;47.520;19.186;2022-12-10T12:19:05;34.53;;;21.40;;
49101;SDS011;34913;47.520;19.186;2022-12-10T12:21:37;36.90;;;21.38;;
49101;SDS011;34913;47.520;19.186;2022-12-10T12:29:15;42.22;;;24.23;;
49101;SDS011;34913;47.520;19.186;2022-12-10T12:31:54;41.33;;;23.10;;
49101;SDS011;34913;47.520;19.186;2022-12-10T12:34:33;38.88;;;22.75;;
49101;SDS011;34913;47.520;19.186;2022-12-10T12:37:02;39.75;;;24.05;;
49101;SDS011;34913;47.520;19.186;2022-12-10T12:39:43;38.80;;;22.95;;
49101;SDS011;34913;47.520;19.186;2022-12-10T12:45:28;41.97;;;23.88;;
49101;SDS011;34913;47.520;19.186;2022-12-10T12:50:43;35.05;;;20.60;;
49101;SDS011;34913;47.520;19.186;2022-12-10T12:53:18;33.15;;;19.23;;
49101;SDS011;34913;47.520;19.186;2022-12-10T12:56:01;32.47;;;18.58;;
49101;SDS011;34913;47.520;19.186;2022-12-10T12:59:43;28.00;;;14.80;;
49101;SDS011;34913;47.520;19.186;2022-12-10T13:01:56;28.77;;;15.63;;
49101;SDS011;34913;47.520;19.186;2022-12-10T13:04:26;27.73;;;14.98;;
49101;SDS011;34913;47.520;19.186;2022-12-10T13:09:48;24.60;;;13.88;;
49101;SDS011;34913;47.520;19.186;2022-12-10T13:17:36;25.92;;;14.73;;
49101;SDS011;34913;47.520;19.186;2022-12-10T13:41:32;29.97;;;16.57;;
49101;SDS011;34913;47.520;19.186;2022-12-10T13:49:46;30.20;;;16.73;;
49101;SDS011;34913;47.520;19.186;2022-12-10T13:52:19;32.55;;;16.70;;
49101;SDS011;34913;47.520;19.186;2022-12-10T13:55:02;31.17;;;17.30;;
49101;SDS011;34913;47.520;19.186;2022-12-10T14:08:39;31.65;;;18.02;;
49101;SDS011;34913;47.520;19.186;2022-12-10T14:11:14;32.28;;;17.80;;
49101;SDS011;34913;47.520;19.186;2022-12-10T14:13:47;31.92;;;17.65;;
49101;SDS011;34913;47.520;19.186;2022-12-10T14:16:19;32.90;;;18.05;;
49101;SDS011;34913;47.520;19.186;2022-12-10T14:18:54;32.70;;;17.85;;
49101;SDS011;34913;47.520;19.186;2022-12-10T14:21:23;30.70;;;17.95;;
49101;SDS011;34913;47.520;19.186;2022-12-10T14:23:49;36.25;;;18.73;;
49101;SDS011;34913;47.520;19.186;2022-12-10T14:26:17;33.35;;;18.48;;
49101;SDS011;34913;47.520;19.186;2022-12-10T14:28:49;34.50;;;20.17;;
49101;SDS011;34913;47.520;19.186;2022-12-10T14:31:21;35.90;;;19.80;;
49101;SDS011;34913;47.520;19.186;2022-12-10T14:34:17;33.40;;;19.35;;
49101;SDS011;34913;47.520;19.186;2022-12-10T14:36:47;40.08;;;22.10;;
49101;SDS011;34913;47.520;19.186;2022-12-10T14:39:18;39.47;;;21.98;;
49101;SDS011;34913;47.520;19.186;2022-12-10T14:41:46;35.97;;;20.63;;
49101;SDS011;34913;47.520;19.186;2022-12-10T14:44:15;34.63;;;19.20;;
49101;SDS011;34913;47.520;19.186;2022-12-10T14:46:42;34.47;;;18.70;;
49101;SDS011;34913;47.520;19.186;2022-12-10T14:49:08;34.03;;;17.92;;
49101;SDS011;34913;47.520;19.186;2022-12-10T14:51:41;28.02;;;17.33;;
49101;SDS011;34913;47.520;19.186;2022-12-10T14:54:22;27.73;;;16.70;;
49101;SDS011;34913;47.520;19.186;2022-12-10T14:56:50;27.38;;;16.27;;
49101;SDS011;34913;47.520;19.186;2022-12-10T14:59:20;28.48;;;17.73;;
49101;SDS011;34913;47.520;19.186;2022-12-10T15:01:52;28.30;;;16.40;;
49101;SDS011;34913;47.520;19.186;2022-12-10T15:06:49;32.70;;;16.45;;
49101;SDS011;34913;47.520;19.186;2022-12-10T15:09:18;37.13;;;19.02;;
49101;SDS011;34913;47.520;19.186;2022-12-10T15:11:45;36.15;;;18.98;;
49101;SDS011;34913;47.520;19.186;2022-12-10T15:14:18;39.47;;;20.98;;
49101;SDS011;34913;47.520;19.186;2022-12-10T15:16:46;31.83;;;18.13;;
49101;SDS011;34913;47.520;19.186;2022-12-10T15:19:16;27.95;;;15.82;;
49101;SDS011;34913;47.520;19.186;2022-12-10T15:21:48;26.10;;;15.75;;
49101;SDS011;34913;47.520;19.186;2022-12-10T15:26:46;28.80;;;16.15;;
49101;SDS011;34913;47.520;19.186;2022-12-10T15:29:15;30.27;;;16.50;;
49101;SDS011;34913;47.520;19.186;2022-12-10T15:31:47;28.23;;;16.92;;
49101;SDS011;34913;47.520;19.186;2022-12-10T15:34:14;26.08;;;15.65;;
49101;SDS011;34913;47.520;19.186;2022-12-10T15:36:47;37.13;;;19.35;;
49101;SDS011;34913;47.520;19.186;2022-12-10T15:39:22;31.23;;;17.88;;
49101;SDS011;34913;47.520;19.186;2022-12-10T15:44:25;30.23;;;17.95;;
49101;SDS011;34913;47.520;19.186;2022-12-10T15:47:12;30.20;;;18.55;;
49101;SDS011;34913;47.520;19.186;2022-12-10T15:49:48;32.30;;;18.60;;
49101;SDS011;34913;47.520;19.186;2022-12-10T15:52:18;31.70;;;19.02;;
49101;SDS011;34913;47.520;19.186;2022-12-10T15:54:47;28.95;;;17.25;;
49101;SDS011;34913;47.520;19.186;2022-12-10T15:57:15;31.55;;;17.63;;
49101;SDS011;34913;47.520;19.186;2022-12-10T15:59:47;29.23;;;17.08;;
49101;SDS011;34913;47.520;19.186;2022-12-10T16:02:21;31.20;;;18.08;;
49101;SDS011;34913;47.520;19.186;2022-12-10T16:07:44;28.63;;;16.02;;
49101;SDS011;34913;47.520;19.186;2022-12-10T16:10:10;28.70;;;16.30;;
49101;SDS011;34913;47.520;19.186;2022-12-10T16:12:38;25.63;;;15.75;;
49101;SDS011;34913;47.520;19.186;2022-12-10T16:15:05;27.90;;;15.68;;
49101;SDS011;34913;47.520;19.186;2022-12-10T16:17:32;26.83;;;15.88;;
49101;SDS011;34913;47.520;19.186;2022-12-10T16:19:59;28.58;;;16.02;;
49101;SDS011;34913;47.520;19.186;2022-12-10T16:22:34;28.13;;;16.23;;
49101;SDS011;34913;47.520;19.186;2022-12-10T16:24:59;35.58;;;18.70;;
49101;SDS011;34913;47.520;19.186;2022-12-10T16:27:26;28.42;;;16.80;;
49101;SDS011;34913;47.520;19.186;2022-12-10T16:29:51;28.15;;;16.80;;
49101;SDS011;34913;47.520;19.186;2022-12-10T16:32:17;27.25;;;16.27;;
49101;SDS011;34913;47.520;19.186;2022-12-10T16:34:42;29.20;;;17.25;;